Saint Paul, Indiana
Current Conditions -  °F | °C
As of 3:53 PM on Friday 24 Oct 2014 (Local Time) from KGEZ Reporting Station
Few Clouds Few Clouds  
Wind Chill: 67°   Ceiling: Unl
Heat Index: 67°   Visibility: 10mi
Dew Point: 48°   Wind: 5mph
Humidity: 51%   Direction: 240°WSW
Pressure: 30.03"   Gusts: NA
Location:  39.43°N, 85.63°W
Report Text: KGEZ 241953Z AUTO 24004KT 10SM FEW035 19/09 A3003 RMK AO2 SLP168 T01940089
Loading
Personal Weather Stations






























Interactive Weather Map
Tropical Storm Tracking
New forecast layout! Learn more

10-Day Weather Forecast

Advertisements
Track Severe Weather on mobile